sensor_id;sensor_type;location;lat;lon;timestamp;pressure;altitude;pressure_sealevel;temperature;humidity
62402;BME280;48440;51.224;22.506;2023-04-01T00:00:15;97357.28;;;9.55;77.73
62402;BME280;48440;51.224;22.506;2023-04-01T00:02:41;97362.97;;;9.53;77.83
62402;BME280;48440;51.224;22.506;2023-04-01T00:05:07;97365.41;;;9.55;77.42
62402;BME280;48440;51.224;22.506;2023-04-01T00:07:32;97358.06;;;9.55;77.68
62402;BME280;48440;51.224;22.506;2023-04-01T00:09:58;97355.75;;;9.48;77.50
62402;BME280;48440;51.224;22.506;2023-04-01T00:12:23;97368.19;;;9.49;77.25
62402;BME280;48440;51.224;22.506;2023-04-01T00:14:50;97355.50;;;9.45;77.45
62402;BME280;48440;51.224;22.506;2023-04-01T00:17:15;97360.13;;;9.44;77.68
62402;BME280;48440;51.224;22.506;2023-04-01T00:19:41;97355.69;;;9.35;77.57
62402;BME280;48440;51.224;22.506;2023-04-01T00:22:07;97355.38;;;9.36;77.86
62402;BME280;48440;51.224;22.506;2023-04-01T00:24:37;97353.97;;;9.39;77.78
62402;BME280;48440;51.224;22.506;2023-04-01T00:27:02;97346.25;;;9.32;78.03
62402;BME280;48440;51.224;22.506;2023-04-01T00:29:27;97340.91;;;9.27;77.96
62402;BME280;48440;51.224;22.506;2023-04-01T00:31:58;97345.50;;;9.27;77.93
62402;BME280;48440;51.224;22.506;2023-04-01T00:34:24;97340.63;;;9.29;77.78
62402;BME280;48440;51.224;22.506;2023-04-01T00:36:50;97341.78;;;9.23;77.94
62402;BME280;48440;51.224;22.506;2023-04-01T00:39:17;97353.91;;;9.25;77.86
62402;BME280;48440;51.224;22.506;2023-04-01T00:41:43;97346.91;;;9.24;77.03
62402;BME280;48440;51.224;22.506;2023-04-01T00:44:29;97341.25;;;9.21;77.92
62402;BME280;48440;51.224;22.506;2023-04-01T00:46:56;97335.63;;;9.17;77.79
62402;BME280;48440;51.224;22.506;2023-04-01T00:49:26;97327.22;;;9.18;77.63
62402;BME280;48440;51.224;22.506;2023-04-01T00:51:54;97338.03;;;9.18;77.73
62402;BME280;48440;51.224;22.506;2023-04-01T00:54:25;97338.56;;;9.21;77.64
62402;BME280;48440;51.224;22.506;2023-04-01T00:56:55;97336.44;;;9.17;77.52
62402;BME280;48440;51.224;22.506;2023-04-01T00:59:27;97335.91;;;9.15;78.16
62402;BME280;48440;51.224;22.506;2023-04-01T01:01:54;97337.53;;;9.16;78.07
62402;BME280;48440;51.224;22.506;2023-04-01T01:04:22;97335.03;;;9.20;77.91
62402;BME280;48440;51.224;22.506;2023-04-01T01:12:25;97317.78;;;9.16;77.80
62402;BME280;48440;51.224;22.506;2023-04-01T01:14:54;97329.63;;;9.20;77.90
62402;BME280;48440;51.224;22.506;2023-04-01T01:23:00;97308.28;;;9.18;77.71
62402;BME280;48440;51.224;22.506;2023-04-01T01:25:44;97302.34;;;9.16;77.62
62402;BME280;48440;51.224;22.506;2023-04-01T01:28:38;97303.16;;;9.17;77.76
62402;BME280;48440;51.224;22.506;2023-04-01T01:37:05;97303.66;;;9.19;77.99
62402;BME280;48440;51.224;22.506;2023-04-01T01:39:34;97304.84;;;9.13;78.29
62402;BME280;48440;51.224;22.506;2023-04-01T01:42:04;97307.25;;;9.14;78.09
62402;BME280;48440;51.224;22.506;2023-04-01T01:44:32;97295.91;;;9.12;78.03
62402;BME280;48440;51.224;22.506;2023-04-01T01:47:00;97294.22;;;9.16;77.85
62402;BME280;48440;51.224;22.506;2023-04-01T01:49:27;97292.91;;;9.14;77.92
62402;BME280;48440;51.224;22.506;2023-04-01T01:51:56;97287.78;;;9.12;77.96
62402;BME280;48440;51.224;22.506;2023-04-01T01:54:21;97286.41;;;9.15;78.05
62402;BME280;48440;51.224;22.506;2023-04-01T01:56:49;97281.28;;;9.13;78.53
62402;BME280;48440;51.224;22.506;2023-04-01T01:59:17;97278.28;;;9.15;78.09
62402;BME280;48440;51.224;22.506;2023-04-01T02:01:48;97293.44;;;9.16;78.40
62402;BME280;48440;51.224;22.506;2023-04-01T02:04:16;97284.78;;;9.14;78.53
62402;BME280;48440;51.224;22.506;2023-04-01T02:06:50;97283.69;;;9.15;78.57
62402;BME280;48440;51.224;22.506;2023-04-01T02:09:19;97282.59;;;9.16;78.39
62402;BME280;48440;51.224;22.506;2023-04-01T02:11:53;97282.38;;;9.12;78.71
62402;BME280;48440;51.224;22.506;2023-04-01T02:14:23;97279.97;;;9.11;79.06
62402;BME280;48440;51.224;22.506;2023-04-01T02:16:59;97282.09;;;9.14;78.98
62402;BME280;48440;51.224;22.506;2023-04-01T02:19:35;97283.41;;;9.16;78.64
62402;BME280;48440;51.224;22.506;2023-04-01T02:22:04;97279.59;;;9.17;78.84
62402;BME280;48440;51.224;22.506;2023-04-01T02:24:35;97275.81;;;9.18;78.90
62402;BME280;48440;51.224;22.506;2023-04-01T02:27:02;97269.06;;;9.16;79.12
62402;BME280;48440;51.224;22.506;2023-04-01T02:29:28;97263.38;;;9.17;79.26
62402;BME280;48440;51.224;22.506;2023-04-01T02:31:54;97266.38;;;9.16;79.37
62402;BME280;48440;51.224;22.506;2023-04-01T02:34:21;97267.97;;;9.17;79.39
62402;BME280;48440;51.224;22.506;2023-04-01T02:36:49;97265.06;;;9.13;79.00
62402;BME280;48440;51.224;22.506;2023-04-01T02:39:15;97265.06;;;9.13;79.00
62402;BME280;48440;51.224;22.506;2023-04-01T02:41:43;97262.63;;;9.12;79.27
62402;BME280;48440;51.224;22.506;2023-04-01T02:44:10;97266.75;;;9.09;79.47
62402;BME280;48440;51.224;22.506;2023-04-01T02:46:36;97267.06;;;9.08;79.71
62402;BME280;48440;51.224;22.506;2023-04-01T02:49:02;97265.16;;;9.08;79.99
62402;BME280;48440;51.224;22.506;2023-04-01T02:51:27;97265.72;;;9.05;79.57
62402;BME280;48440;51.224;22.506;2023-04-01T02:53:53;97278.16;;;9.06;79.98
62402;BME280;48440;51.224;22.506;2023-04-01T02:56:18;97277.38;;;9.06;79.82
62402;BME280;48440;51.224;22.506;2023-04-01T02:58:45;97280.88;;;9.06;79.71
62402;BME280;48440;51.224;22.506;2023-04-01T03:01:11;97276.78;;;9.09;79.51
62402;BME280;48440;51.224;22.506;2023-04-01T03:03:36;97273.56;;;9.07;79.81
62402;BME280;48440;51.224;22.506;2023-04-01T03:06:07;97267.13;;;9.03;79.96
62402;BME280;48440;51.224;22.506;2023-04-01T03:08:33;97279.03;;;9.02;80.12
62402;BME280;48440;51.224;22.506;2023-04-01T03:10:58;97271.16;;;9.05;80.18
62402;BME280;48440;51.224;22.506;2023-04-01T03:13:24;97283.06;;;9.04;80.10
62402;BME280;48440;51.224;22.506;2023-04-01T03:15:50;97272.53;;;9.03;79.74
62402;BME280;48440;51.224;22.506;2023-04-01T03:18:15;97277.44;;;9.01;79.64
62402;BME280;48440;51.224;22.506;2023-04-01T03:20:40;97279.34;;;9.00;79.80
62402;BME280;48440;51.224;22.506;2023-04-01T03:23:07;97282.03;;;9.00;79.94
62402;BME280;48440;51.224;22.506;2023-04-01T03:25:32;97292.84;;;9.00;80.00
62402;BME280;48440;51.224;22.506;2023-04-01T03:27:58;97288.53;;;8.99;80.03
62402;BME280;48440;51.224;22.506;2023-04-01T03:30:25;97296.94;;;8.98;80.03
62402;BME280;48440;51.224;22.506;2023-04-01T03:32:51;97303.47;;;8.97;79.57
62402;BME280;48440;51.224;22.506;2023-04-01T03:35:16;97308.88;;;8.97;79.84
62402;BME280;48440;51.224;22.506;2023-04-01T03:37:42;97305.94;;;8.93;79.82
62402;BME280;48440;51.224;22.506;2023-04-01T03:40:08;97316.47;;;8.95;80.00
62402;BME280;48440;51.224;22.506;2023-04-01T03:42:33;97307.03;;;8.92;79.97
62402;BME280;48440;51.224;22.506;2023-04-01T03:45:00;97311.41;;;8.88;79.91
62402;BME280;48440;51.224;22.506;2023-04-01T03:47:25;97314.13;;;8.88;80.18
62402;BME280;48440;51.224;22.506;2023-04-01T03:49:50;97308.72;;;8.88;79.93
62402;BME280;48440;51.224;22.506;2023-04-01T03:52:16;97323.72;;;8.80;79.91
62402;BME280;48440;51.224;22.506;2023-04-01T03:54:41;97323.72;;;8.80;80.48
62402;BME280;48440;51.224;22.506;2023-04-01T03:57:07;97315.31;;;8.82;79.93
62402;BME280;48440;51.224;22.506;2023-04-01T03:59:32;97331.22;;;8.83;79.84
62402;BME280;48440;51.224;22.506;2023-04-01T04:01:58;97323.41;;;8.82;79.78
62402;BME280;48440;51.224;22.506;2023-04-01T04:04:23;97325.31;;;8.81;80.32
62402;BME280;48440;51.224;22.506;2023-04-01T04:06:49;97329.13;;;8.80;79.95
62402;BME280;48440;51.224;22.506;2023-04-01T04:09:15;97332.63;;;8.81;79.82
62402;BME280;48440;51.224;22.506;2023-04-01T04:11:41;97339.13;;;8.80;80.20
62402;BME280;48440;51.224;22.506;2023-04-01T04:14:06;97334.00;;;8.78;80.07
62402;BME280;48440;51.224;22.506;2023-04-01T04:16:31;97336.72;;;8.78;80.48
62402;BME280;48440;51.224;22.506;2023-04-01T04:18:59;97338.03;;;8.81;80.44
62402;BME280;48440;51.224;22.506;2023-04-01T04:21:24;97337.53;;;8.79;80.61
62402;BME280;48440;51.224;22.506;2023-04-01T04:23:50;97336.94;;;8.82;80.58
62402;BME280;48440;51.224;22.506;2023-04-01T04:26:16;97331.53;;;8.82;80.42
62402;BME280;48440;51.224;22.506;2023-04-01T04:28:42;97332.63;;;8.81;80.38
62402;BME280;48440;51.224;22.506;2023-04-01T04:31:07;97328.03;;;8.81;80.30
62402;BME280;48440;51.224;22.506;2023-04-01T04:33:34;97326.13;;;8.82;80.67
62402;BME280;48440;51.224;22.506;2023-04-01T04:36:00;97325.81;;;8.83;80.32
62402;BME280;48440;51.224;22.506;2023-04-01T04:38:26;97333.16;;;8.83;80.82
62402;BME280;48440;51.224;22.506;2023-04-01T04:40:52;97323.09;;;8.83;80.72
62402;BME280;48440;51.224;22.506;2023-04-01T04:43:18;97325.50;;;8.85;80.69
62402;BME280;48440;51.224;22.506;2023-04-01T04:45:43;97316.00;;;8.88;80.27
62402;BME280;48440;51.224;22.506;2023-04-01T04:48:11;97332.25;;;8.88;80.75
62402;BME280;48440;51.224;22.506;2023-04-01T04:50:41;97320.84;;;8.91;80.52
62402;BME280;48440;51.224;22.506;2023-04-01T04:53:09;97322.97;;;8.94;80.40
62402;BME280;48440;51.224;22.506;2023-04-01T04:55:35;97330.00;;;8.95;80.50
62402;BME280;48440;51.224;22.506;2023-04-01T04:58:00;97328.09;;;8.95;80.42
62402;BME280;48440;51.224;22.506;2023-04-01T05:00:26;97327.00;;;8.96;80.44
62402;BME280;48440;51.224;22.506;2023-04-01T05:02:52;97332.34;;;9.01;80.54
62402;BME280;48440;51.224;22.506;2023-04-01T05:05:17;97340.47;;;9.01;80.06
62402;BME280;48440;51.224;22.506;2023-04-01T05:07:42;97335.28;;;9.05;80.36
62402;BME280;48440;51.224;22.506;2023-04-01T05:10:08;97343.00;;;9.11;79.94
62402;BME280;48440;51.224;22.506;2023-04-01T05:12:34;97342.19;;;9.11;79.76
62402;BME280;48440;51.224;22.506;2023-04-01T05:15:04;97341.63;;;9.14;80.02
62402;BME280;48440;51.224;22.506;2023-04-01T05:17:30;97339.13;;;9.17;79.89
62402;BME280;48440;51.224;22.506;2023-04-01T05:19:56;97338.84;;;9.19;79.59
62402;BME280;48440;51.224;22.506;2023-04-01T05:22:22;97334.97;;;9.25;79.74
62402;BME280;48440;51.224;22.506;2023-04-01T05:24:48;97338.72;;;9.29;79.12
62402;BME280;48440;51.224;22.506;2023-04-01T05:27:14;97345.72;;;9.30;79.20
62402;BME280;48440;51.224;22.506;2023-04-01T05:29:39;97333.81;;;9.31;79.33
62402;BME280;48440;51.224;22.506;2023-04-01T05:32:05;97340.25;;;9.35;79.30
62402;BME280;48440;51.224;22.506;2023-04-01T05:34:30;97340.72;;;9.37;78.95
62402;BME280;48440;51.224;22.506;2023-04-01T05:36:55;97338.31;;;9.36;79.27
62402;BME280;48440;51.224;22.506;2023-04-01T05:39:21;97338.84;;;9.38;79.82
62402;BME280;48440;51.224;22.506;2023-04-01T05:41:46;97335.03;;;9.39;79.61
62402;BME280;48440;51.224;22.506;2023-04-01T05:44:12;97341.75;;;9.41;79.57
62402;BME280;48440;51.224;22.506;2023-04-01T05:46:37;97332.75;;;9.46;79.43
62402;BME280;48440;51.224;22.506;2023-04-01T05:49:03;97335.19;;;9.47;79.42
62402;BME280;48440;51.224;22.506;2023-04-01T05:51:28;97339.72;;;9.52;79.33
62402;BME280;48440;51.224;22.506;2023-04-01T05:53:54;97342.63;;;9.56;79.45
62402;BME280;48440;51.224;22.506;2023-04-01T05:56:19;97345.84;;;9.58;78.62
62402;BME280;48440;51.224;22.506;2023-04-01T05:58:47;97342.63;;;9.56;78.67
62402;BME280;48440;51.224;22.506;2023-04-01T06:01:15;97349.38;;;9.58;78.52
62402;BME280;48440;51.224;22.506;2023-04-01T06:03:41;97348.28;;;9.59;78.65
62402;BME280;48440;51.224;22.506;2023-04-01T06:06:14;97347.47;;;9.59;78.43
62402;BME280;48440;51.224;22.506;2023-04-01T06:08:40;97343.84;;;9.63;78.64
62402;BME280;48440;51.224;22.506;2023-04-01T06:11:23;97339.22;;;9.64;78.48
62402;BME280;48440;51.224;22.506;2023-04-01T06:14:10;97336.75;;;9.67;77.88
62402;BME280;48440;51.224;22.506;2023-04-01T06:22:39;97351.38;;;9.66;78.20
62402;BME280;48440;51.224;22.506;2023-04-01T06:31:24;97356.44;;;9.73;76.81
62402;BME280;48440;51.224;22.506;2023-04-01T06:34:14;97359.56;;;9.80;76.99
62402;BME280;48440;51.224;22.506;2023-04-01T06:37:09;97351.56;;;9.88;76.85
62402;BME280;48440;51.224;22.506;2023-04-01T06:43:12;97357.50;;;10.50;74.90
62402;BME280;48440;51.224;22.506;2023-04-01T06:53:04;97361.56;;;12.90;66.71
62402;BME280;48440;51.224;22.506;2023-04-01T06:55:43;97355.19;;;13.12;64.83
62402;BME280;48440;51.224;22.506;2023-04-01T06:58:31;97368.97;;;12.98;65.20
62402;BME280;48440;51.224;22.506;2023-04-01T07:01:03;97378.13;;;12.63;65.87
62402;BME280;48440;51.224;22.506;2023-04-01T07:03:35;97372.16;;;12.21;67.70
62402;BME280;48440;51.224;22.506;2023-04-01T07:06:14;97377.56;;;12.43;67.63
62402;BME280;48440;51.224;22.506;2023-04-01T07:08:43;97379.19;;;12.93;65.35
62402;BME280;48440;51.224;22.506;2023-04-01T07:11:29;97369.38;;;13.40;64.30
62402;BME280;48440;51.224;22.506;2023-04-01T07:14:01;97369.69;;;13.99;61.62
62402;BME280;48440;51.224;22.506;2023-04-01T07:16:33;97370.38;;;14.51;60.86
62402;BME280;48440;51.224;22.506;2023-04-01T07:19:16;97381.41;;;15.01;58.71
62402;BME280;48440;51.224;22.506;2023-04-01T07:24:21;97378.81;;;15.55;56.72
62402;BME280;48440;51.224;22.506;2023-04-01T07:26:48;97374.22;;;15.17;56.74
62402;BME280;48440;51.224;22.506;2023-04-01T07:29:18;97372.72;;;15.28;56.81
62402;BME280;48440;51.224;22.506;2023-04-01T07:31:56;97382.56;;;15.71;56.69
62402;BME280;48440;51.224;22.506;2023-04-01T07:34:56;97374.66;;;15.57;57.11
62402;BME280;48440;51.224;22.506;2023-04-01T07:37:46;97372.09;;;15.02;58.00
62402;BME280;48440;51.224;22.506;2023-04-01T07:43:43;97375.34;;;14.40;60.44
62402;BME280;48440;51.224;22.506;2023-04-01T07:49:15;97381.16;;;14.85;58.51
62402;BME280;48440;51.224;22.506;2023-04-01T07:57:04;97390.44;;;15.73;55.99
62402;BME280;48440;51.224;22.506;2023-04-01T08:03:04;97382.69;;;15.75;56.83
62402;BME280;48440;51.224;22.506;2023-04-01T08:05:19;97383.69;;;15.49;57.02
62402;BME280;48440;51.224;22.506;2023-04-01T08:08:18;97377.41;;;15.28;57.25
62402;BME280;48440;51.224;22.506;2023-04-01T08:11:00;97385.44;;;15.24;55.20
62402;BME280;48440;51.224;22.506;2023-04-01T08:13:43;97383.53;;;14.96;56.01
62402;BME280;48440;51.224;22.506;2023-04-01T08:21:43;97379.22;;;15.15;57.08
62402;BME280;48440;51.224;22.506;2023-04-01T08:24:16;97381.78;;;15.20;55.72
62402;BME280;48440;51.224;22.506;2023-04-01T08:26:46;97383.53;;;15.46;55.51
62402;BME280;48440;51.224;22.506;2023-04-01T08:29:19;97378.56;;;16.22;53.97
62402;BME280;48440;51.224;22.506;2023-04-01T08:31:51;97388.16;;;16.74;51.63
62402;BME280;48440;51.224;22.506;2023-04-01T08:34:36;97385.66;;;16.93;50.72
62402;BME280;48440;51.224;22.506;2023-04-01T08:37:19;97376.31;;;16.94;49.57
62402;BME280;48440;51.224;22.506;2023-04-01T08:39:50;97368.75;;;17.27;51.51
62402;BME280;48440;51.224;22.506;2023-04-01T08:47:46;97378.25;;;17.30;50.58
62402;BME280;48440;51.224;22.506;2023-04-01T08:53:31;97379.34;;;17.93;47.94
62402;BME280;48440;51.224;22.506;2023-04-01T09:07:07;97372.81;;;18.26;46.08
62402;BME280;48440;51.224;22.506;2023-04-01T09:31:43;97391.03;;;16.32;48.71
62402;BME280;48440;51.224;22.506;2023-04-01T09:37:18;97389.13;;;15.49;50.76
62402;BME280;48440;51.224;22.506;2023-04-01T10:11:15;97398.84;;;14.24;56.10
62402;BME280;48440;51.224;22.506;2023-04-01T10:32:36;97402.88;;;14.01;57.60
62402;BME280;48440;51.224;22.506;2023-04-01T10:54:47;97393.22;;;14.29;57.22
62402;BME280;48440;51.224;22.506;2023-04-01T11:00:08;97396.13;;;14.15;56.16
62402;BME280;48440;51.224;22.506;2023-04-01T11:11:14;97394.50;;;14.14;56.88
62402;BME280;48440;51.224;22.506;2023-04-01T11:22:10;97401.88;;;14.14;56.39
62402;BME280;48440;51.224;22.506;2023-04-01T11:44:22;97407.38;;;13.62;58.14
62402;BME280;48440;51.224;22.506;2023-04-01T11:55:31;97398.69;;;13.43;59.55
62402;BME280;48440;51.224;22.506;2023-04-01T11:58:07;97404.44;;;13.33;60.63
62402;BME280;48440;51.224;22.506;2023-04-01T12:00:41;97400.75;;;13.29;60.41
62402;BME280;48440;51.224;22.506;2023-04-01T12:06:05;97413.69;;;13.14;60.50
62402;BME280;48440;51.224;22.506;2023-04-01T12:11:41;97434.06;;;13.17;61.36
62402;BME280;48440;51.224;22.506;2023-04-01T12:14:21;97433.06;;;13.13;62.01
62402;BME280;48440;51.224;22.506;2023-04-01T12:25:01;97430.47;;;12.99;64.29
62402;BME280;48440;51.224;22.506;2023-04-01T12:33:37;97423.25;;;13.03;66.30
62402;BME280;48440;51.224;22.506;2023-04-01T12:36:21;97420.13;;;13.18;65.82
62402;BME280;48440;51.224;22.506;2023-04-01T12:39:15;97422.22;;;13.30;66.71
62402;BME280;48440;51.224;22.506;2023-04-01T12:41:54;97422.56;;;13.37;65.76
62402;BME280;48440;51.224;22.506;2023-04-01T12:47:35;97420.31;;;13.31;63.35
62402;BME280;48440;51.224;22.506;2023-04-01T13:17:23;97438.63;;;13.56;60.95
62402;BME280;48440;51.224;22.506;2023-04-01T13:19:58;97438.63;;;13.47;60.32
62402;BME280;48440;51.224;22.506;2023-04-01T13:25:03;97436.69;;;13.39;60.60
62402;BME280;48440;51.224;22.506;2023-04-01T13:27:42;97447.22;;;13.32;60.02
62402;BME280;48440;51.224;22.506;2023-04-01T13:30:24;97435.53;;;13.23;59.16
62402;BME280;48440;51.224;22.506;2023-04-01T13:33:20;97441.13;;;13.18;59.80
62402;BME280;48440;51.224;22.506;2023-04-01T13:36:03;97447.78;;;13.12;60.33
62402;BME280;48440;51.224;22.506;2023-04-01T13:44:56;97463.13;;;12.99;62.30
62402;BME280;48440;51.224;22.506;2023-04-01T13:51:01;97470.38;;;12.73;64.40
62402;BME280;48440;51.224;22.506;2023-04-01T13:53:39;97482.25;;;12.54;67.31
62402;BME280;48440;51.224;22.506;2023-04-01T14:09:58;97478.72;;;11.73;73.91
62402;BME280;48440;51.224;22.506;2023-04-01T14:12:30;97484.88;;;11.79;73.83
62402;BME280;48440;51.224;22.506;2023-04-01T14:21:21;97484.59;;;11.80;74.04
62402;BME280;48440;51.224;22.506;2023-04-01T14:38:15;97481.09;;;11.66;73.53
62402;BME280;48440;51.224;22.506;2023-04-01T14:52:28;97486.38;;;11.85;75.15
62402;BME280;48440;51.224;22.506;2023-04-01T14:54:56;97485.91;;;11.69;74.97
62402;BME280;48440;51.224;22.506;2023-04-01T14:57:28;97485.72;;;11.66;75.07
62402;BME280;48440;51.224;22.506;2023-04-01T15:24:06;97499.72;;;11.32;78.27
62402;BME280;48440;51.224;22.506;2023-04-01T15:32:17;97503.34;;;11.41;78.09
62402;BME280;48440;51.224;22.506;2023-04-01T15:37:57;97509.59;;;11.41;78.21
62402;BME280;48440;51.224;22.506;2023-04-01T15:40:30;97507.69;;;11.42;78.65
62402;BME280;48440;51.224;22.506;2023-04-01T15:50:44;97520.34;;;11.33;76.76
62402;BME280;48440;51.224;22.506;2023-04-01T16:01:12;97528.19;;;11.34;75.32
62402;BME280;48440;51.224;22.506;2023-04-01T16:12:11;97536.44;;;11.29;76.01
62402;BME280;48440;51.224;22.506;2023-04-01T16:14:47;97533.22;;;11.27;76.21
62402;BME280;48440;51.224;22.506;2023-04-01T16:17:25;97536.53;;;11.24;75.84
62402;BME280;48440;51.224;22.506;2023-04-01T16:22:32;97549.81;;;11.12;76.81
62402;BME280;48440;51.224;22.506;2023-04-01T16:30:40;97559.53;;;10.99;78.61
62402;BME280;48440;51.224;22.506;2023-04-01T16:36:13;97554.69;;;10.96;79.07
62402;BME280;48440;51.224;22.506;2023-04-01T16:41:33;97565.44;;;10.87;79.58
62402;BME280;48440;51.224;22.506;2023-04-01T16:44:20;97563.31;;;10.84;79.65
62402;BME280;48440;51.224;22.506;2023-04-01T16:46:55;97573.88;;;10.86;79.59
62402;BME280;48440;51.224;22.506;2023-04-01T16:57:15;97573.16;;;10.80;78.84
62402;BME280;48440;51.224;22.506;2023-04-01T17:00:20;97575.06;;;10.80;78.81
62402;BME280;48440;51.224;22.506;2023-04-01T17:02:57;97574.84;;;10.76;79.03
62402;BME280;48440;51.224;22.506;2023-04-01T17:11:21;97577.13;;;10.69;79.01
62402;BME280;48440;51.224;22.506;2023-04-01T17:16:50;97582.16;;;10.62;78.36
62402;BME280;48440;51.224;22.506;2023-04-01T17:24:58;97583.03;;;10.58;78.22
62402;BME280;48440;51.224;22.506;2023-04-01T17:30:58;97587.16;;;10.55;78.46
62402;BME280;48440;51.224;22.506;2023-04-01T17:39:53;97601.06;;;10.48;78.39
62402;BME280;48440;51.224;22.506;2023-04-01T17:42:33;97602.97;;;10.48;79.23
62402;BME280;48440;51.224;22.506;2023-04-01T17:45:10;97611.13;;;10.48;79.82
62402;BME280;48440;51.224;22.506;2023-04-01T18:21:05;97643.31;;;10.36;79.85
62402;BME280;48440;51.224;22.506;2023-04-01T18:23:39;97640.88;;;10.34;79.83
62402;BME280;48440;51.224;22.506;2023-04-01T18:26:13;97644.19;;;10.31;80.04
62402;BME280;48440;51.224;22.506;2023-04-01T18:28:52;97646.91;;;10.31;80.09
62402;BME280;48440;51.224;22.506;2023-04-01T18:31:22;97644.19;;;10.31;80.26
62402;BME280;48440;51.224;22.506;2023-04-01T18:39:18;97644.75;;;10.28;80.15
62402;BME280;48440;51.224;22.506;2023-04-01T18:42:14;97656.72;;;10.27;80.41
62402;BME280;48440;51.224;22.506;2023-04-01T18:44:46;97654.00;;;10.27;80.64
62402;BME280;48440;51.224;22.506;2023-04-01T18:50:17;97651.88;;;10.24;81.24
62402;BME280;48440;51.224;22.506;2023-04-01T18:52:46;97655.38;;;10.25;81.52
62402;BME280;48440;51.224;22.506;2023-04-01T18:57:55;97660.56;;;10.21;81.51
62402;BME280;48440;51.224;22.506;2023-04-01T19:00:28;97664.91;;;10.22;81.75
62402;BME280;48440;51.224;22.506;2023-04-01T19:03:02;97663.50;;;10.25;81.22
62402;BME280;48440;51.224;22.506;2023-04-01T19:05:39;97664.84;;;10.27;81.30
62402;BME280;48440;51.224;22.506;2023-04-01T19:16:20;97675.69;;;10.27;81.17
62402;BME280;48440;51.224;22.506;2023-04-01T19:21:47;97684.56;;;10.33;81.09
62402;BME280;48440;51.224;22.506;2023-04-01T19:24:43;97679.44;;;10.31;81.50
62402;BME280;48440;51.224;22.506;2023-04-01T19:27:35;97689.13;;;10.37;80.68
62402;BME280;48440;51.224;22.506;2023-04-01T19:30:31;97688.81;;;10.39;80.91
62402;BME280;48440;51.224;22.506;2023-04-01T19:35:43;97689.13;;;10.37;81.38
62402;BME280;48440;51.224;22.506;2023-04-01T19:38:31;97693.44;;;10.38;81.02
62402;BME280;48440;51.224;22.506;2023-04-01T19:46:37;97697.16;;;10.42;80.96
62402;BME280;48440;51.224;22.506;2023-04-01T20:00:37;97719.75;;;10.38;81.66
62402;BME280;48440;51.224;22.506;2023-04-01T20:06:18;97720.56;;;10.38;81.51
62402;BME280;48440;51.224;22.506;2023-04-01T20:16:18;97721.94;;;10.36;81.76
62402;BME280;48440;51.224;22.506;2023-04-01T20:18:57;97725.22;;;10.33;81.86
62402;BME280;48440;51.224;22.506;2023-04-01T20:21:32;97727.72;;;10.29;81.56
62402;BME280;48440;51.224;22.506;2023-04-01T20:24:17;97731.00;;;10.26;81.70
62402;BME280;48440;51.224;22.506;2023-04-01T20:27:04;97731.56;;;10.23;82.03
62402;BME280;48440;51.224;22.506;2023-04-01T20:29:41;97742.72;;;10.22;82.26
62402;BME280;48440;51.224;22.506;2023-04-01T20:38:35;97744.63;;;10.21;81.88
62402;BME280;48440;51.224;22.506;2023-04-01T20:41:24;97745.66;;;10.25;81.41
62402;BME280;48440;51.224;22.506;2023-04-01T20:44:45;97755.19;;;10.17;81.69
62402;BME280;48440;51.224;22.506;2023-04-01T20:47:42;97742.22;;;10.14;81.95
62402;BME280;48440;51.224;22.506;2023-04-01T20:53:25;97769.41;;;10.09;82.24
62402;BME280;48440;51.224;22.506;2023-04-01T20:59:21;97767.25;;;10.06;82.52
62402;BME280;48440;51.224;22.506;2023-04-01T21:07:55;97769.97;;;10.06;82.16
62402;BME280;48440;51.224;22.506;2023-04-01T21:43:17;97798.66;;;10.12;81.83
62402;BME280;48440;51.224;22.506;2023-04-01T21:46:03;97799.75;;;10.11;82.42
62402;BME280;48440;51.224;22.506;2023-04-01T21:52:19;97811.16;;;10.08;82.71
62402;BME280;48440;51.224;22.506;2023-04-01T22:00:53;97830.47;;;10.02;83.13
62402;BME280;48440;51.224;22.506;2023-04-01T22:06:10;97837.28;;;9.94;81.80
62402;BME280;48440;51.224;22.506;2023-04-01T22:17:30;97841.78;;;9.80;80.91
62402;BME280;48440;51.224;22.506;2023-04-01T22:28:55;97859.13;;;9.79;80.50
62402;BME280;48440;51.224;22.506;2023-04-01T22:31:29;97855.34;;;9.75;81.09
62402;BME280;48440;51.224;22.506;2023-04-01T22:34:31;97870.03;;;9.69;80.93
62402;BME280;48440;51.224;22.506;2023-04-01T22:37:26;97860.53;;;9.71;79.93
62402;BME280;48440;51.224;22.506;2023-04-01T22:50:48;97869.84;;;9.60;80.07
62402;BME280;48440;51.224;22.506;2023-04-01T22:56:01;97877.72;;;9.57;79.45
62402;BME280;48440;51.224;22.506;2023-04-01T22:58:43;97877.47;;;9.53;79.27
62402;BME280;48440;51.224;22.506;2023-04-01T23:01:16;97877.75;;;9.51;79.79
62402;BME280;48440;51.224;22.506;2023-04-01T23:03:46;97881.03;;;9.48;79.68
62402;BME280;48440;51.224;22.506;2023-04-01T23:06:42;97877.78;;;9.46;79.47
62402;BME280;48440;51.224;22.506;2023-04-01T23:09:40;97872.38;;;9.46;79.47
62402;BME280;48440;51.224;22.506;2023-04-01T23:12:09;97877.25;;;9.44;79.15
62402;BME280;48440;51.224;22.506;2023-04-01T23:14:38;97877.78;;;9.46;79.33
62402;BME280;48440;51.224;22.506;2023-04-01T23:20:14;97882.69;;;9.39;79.48
62402;BME280;48440;51.224;22.506;2023-04-01T23:26:04;97885.47;;;9.34;79.22
62402;BME280;48440;51.224;22.506;2023-04-01T23:28:41;97891.19;;;9.28;78.44
62402;BME280;48440;51.224;22.506;2023-04-01T23:31:31;97897.44;;;9.23;78.25
62402;BME280;48440;51.224;22.506;2023-04-01T23:34:21;97902.28;;;9.26;77.77
62402;BME280;48440;51.224;22.506;2023-04-01T23:36:50;97903.13;;;9.22;77.35
62402;BME280;48440;51.224;22.506;2023-04-01T23:39:25;97913.13;;;9.21;77.43
62402;BME280;48440;51.224;22.506;2023-04-01T23:41:55;97901.50;;;9.21;77.28
62402;BME280;48440;51.224;22.506;2023-04-01T23:44:24;97901.50;;;9.21;77.25
62402;BME280;48440;51.224;22.506;2023-04-01T23:46:51;97908.56;;;9.16;77.18